sensor_id;sensor_type;location;lat;lon;timestamp;P1;durP1;ratioP1;P2;durP2;ratioP2
15194;SDS011;7698;42.478;23.756;2022-07-11T00:00:07;2.25;;;2.05;;
15194;SDS011;7698;42.478;23.756;2022-07-11T00:02:34;2.53;;;1.92;;
15194;SDS011;7698;42.478;23.756;2022-07-11T00:05:01;1.73;;;1.63;;
15194;SDS011;7698;42.478;23.756;2022-07-11T00:07:28;1.75;;;1.65;;
15194;SDS011;7698;42.478;23.756;2022-07-11T00:09:56;2.03;;;1.90;;
15194;SDS011;7698;42.478;23.756;2022-07-11T00:12:23;1.95;;;1.70;;
15194;SDS011;7698;42.478;23.756;2022-07-11T00:14:51;2.08;;;1.88;;
15194;SDS011;7698;42.478;23.756;2022-07-11T00:17:18;4.03;;;1.80;;
15194;SDS011;7698;42.478;23.756;2022-07-11T00:19:45;4.00;;;1.95;;
15194;SDS011;7698;42.478;23.756;2022-07-11T00:22:12;2.40;;;1.90;;
15194;SDS011;7698;42.478;23.756;2022-07-11T00:24:38;2.20;;;2.00;;
15194;SDS011;7698;42.478;23.756;2022-07-11T00:27:06;2.28;;;2.08;;
15194;SDS011;7698;42.478;23.756;2022-07-11T00:29:33;2.30;;;1.80;;
15194;SDS011;7698;42.478;23.756;2022-07-11T00:32:00;2.95;;;2.25;;
15194;SDS011;7698;42.478;23.756;2022-07-11T00:34:26;3.13;;;2.13;;
15194;SDS011;7698;42.478;23.756;2022-07-11T00:36:53;3.97;;;1.90;;
15194;SDS011;7698;42.478;23.756;2022-07-11T00:39:20;1.85;;;1.75;;
15194;SDS011;7698;42.478;23.756;2022-07-11T00:41:46;1.95;;;1.83;;
15194;SDS011;7698;42.478;23.756;2022-07-11T00:44:14;2.28;;;1.95;;
15194;SDS011;7698;42.478;23.756;2022-07-11T00:46:41;2.17;;;2.03;;
15194;SDS011;7698;42.478;23.756;2022-07-11T00:49:08;2.08;;;1.98;;
15194;SDS011;7698;42.478;23.756;2022-07-11T00:51:34;1.85;;;1.75;;
15194;SDS011;7698;42.478;23.756;2022-07-11T00:54:01;3.13;;;2.13;;
15194;SDS011;7698;42.478;23.756;2022-07-11T00:56:29;2.08;;;1.90;;
15194;SDS011;7698;42.478;23.756;2022-07-11T00:58:56;2.45;;;1.80;;
15194;SDS011;7698;42.478;23.756;2022-07-11T01:01:25;2.22;;;1.83;;
15194;SDS011;7698;42.478;23.756;2022-07-11T01:03:51;1.95;;;1.70;;
15194;SDS011;7698;42.478;23.756;2022-07-11T01:06:18;2.85;;;1.90;;
15194;SDS011;7698;42.478;23.756;2022-07-11T01:08:45;2.40;;;2.10;;
15194;SDS011;7698;42.478;23.756;2022-07-11T01:11:12;2.03;;;1.92;;
15194;SDS011;7698;42.478;23.756;2022-07-11T01:13:40;2.03;;;1.92;;
15194;SDS011;7698;42.478;23.756;2022-07-11T01:16:11;1.73;;;1.63;;
15194;SDS011;7698;42.478;23.756;2022-07-11T01:18:41;1.85;;;1.60;;
15194;SDS011;7698;42.478;23.756;2022-07-11T01:21:10;3.65;;;1.60;;
15194;SDS011;7698;42.478;23.756;2022-07-11T01:23:45;2.00;;;1.90;;
15194;SDS011;7698;42.478;23.756;2022-07-11T01:26:12;1.80;;;1.70;;
15194;SDS011;7698;42.478;23.756;2022-07-11T01:28:39;1.95;;;1.85;;
15194;SDS011;7698;42.478;23.756;2022-07-11T01:31:05;3.33;;;1.70;;
15194;SDS011;7698;42.478;23.756;2022-07-11T01:33:32;1.92;;;1.80;;
15194;SDS011;7698;42.478;23.756;2022-07-11T01:35:59;2.17;;;1.90;;
15194;SDS011;7698;42.478;23.756;2022-07-11T01:38:26;2.58;;;1.92;;
15194;SDS011;7698;42.478;23.756;2022-07-11T01:40:54;1.73;;;1.60;;
15194;SDS011;7698;42.478;23.756;2022-07-11T01:43:21;1.92;;;1.63;;
15194;SDS011;7698;42.478;23.756;2022-07-11T01:45:49;2.00;;;1.80;;
15194;SDS011;7698;42.478;23.756;2022-07-11T01:48:16;1.65;;;1.27;;
15194;SDS011;7698;42.478;23.756;2022-07-11T01:50:42;2.45;;;1.77;;
15194;SDS011;7698;42.478;23.756;2022-07-11T01:53:09;2.05;;;1.40;;
15194;SDS011;7698;42.478;23.756;2022-07-11T01:55:36;2.22;;;1.90;;
15194;SDS011;7698;42.478;23.756;2022-07-11T01:58:04;1.52;;;1.42;;
15194;SDS011;7698;42.478;23.756;2022-07-11T02:00:30;1.40;;;1.33;;
15194;SDS011;7698;42.478;23.756;2022-07-11T02:02:57;3.78;;;1.90;;
15194;SDS011;7698;42.478;23.756;2022-07-11T02:05:24;2.30;;;1.40;;
15194;SDS011;7698;42.478;23.756;2022-07-11T02:07:50;2.25;;;1.55;;
15194;SDS011;7698;42.478;23.756;2022-07-11T02:10:34;3.05;;;1.60;;
15194;SDS011;7698;42.478;23.756;2022-07-11T02:13:01;1.67;;;1.58;;
15194;SDS011;7698;42.478;23.756;2022-07-11T02:15:29;1.70;;;1.60;;
15194;SDS011;7698;42.478;23.756;2022-07-11T02:17:56;1.52;;;1.45;;
15194;SDS011;7698;42.478;23.756;2022-07-11T02:20:23;1.83;;;1.73;;
15194;SDS011;7698;42.478;23.756;2022-07-11T02:22:50;2.97;;;1.73;;
15194;SDS011;7698;42.478;23.756;2022-07-11T02:25:16;2.25;;;1.67;;
15194;SDS011;7698;42.478;23.756;2022-07-11T02:27:43;1.88;;;1.67;;
15194;SDS011;7698;42.478;23.756;2022-07-11T02:30:10;1.70;;;1.60;;
15194;SDS011;7698;42.478;23.756;2022-07-11T02:32:38;2.35;;;1.77;;
15194;SDS011;7698;42.478;23.756;2022-07-11T02:35:05;2.40;;;1.50;;
15194;SDS011;7698;42.478;23.756;2022-07-11T02:37:32;1.67;;;1.58;;
15194;SDS011;7698;42.478;23.756;2022-07-11T02:39:58;1.65;;;1.55;;
15194;SDS011;7698;42.478;23.756;2022-07-11T02:42:25;2.67;;;1.83;;
15194;SDS011;7698;42.478;23.756;2022-07-11T02:44:52;1.55;;;1.45;;
15194;SDS011;7698;42.478;23.756;2022-07-11T02:47:18;4.18;;;1.88;;
15194;SDS011;7698;42.478;23.756;2022-07-11T02:49:46;1.85;;;1.75;;
15194;SDS011;7698;42.478;23.756;2022-07-11T02:52:13;2.35;;;1.70;;
15194;SDS011;7698;42.478;23.756;2022-07-11T02:54:40;2.35;;;1.60;;
15194;SDS011;7698;42.478;23.756;2022-07-11T02:57:07;1.50;;;1.40;;
15194;SDS011;7698;42.478;23.756;2022-07-11T02:59:33;1.75;;;1.65;;
15194;SDS011;7698;42.478;23.756;2022-07-11T03:02:00;1.60;;;1.50;;
15194;SDS011;7698;42.478;23.756;2022-07-11T03:04:29;1.67;;;1.58;;
15194;SDS011;7698;42.478;23.756;2022-07-11T03:06:57;3.10;;;1.65;;
15194;SDS011;7698;42.478;23.756;2022-07-11T03:09:24;1.60;;;1.50;;
15194;SDS011;7698;42.478;23.756;2022-07-11T03:11:51;1.60;;;1.50;;
15194;SDS011;7698;42.478;23.756;2022-07-11T03:14:17;2.40;;;1.73;;
15194;SDS011;7698;42.478;23.756;2022-07-11T03:16:44;1.60;;;1.50;;
15194;SDS011;7698;42.478;23.756;2022-07-11T03:19:11;1.60;;;1.33;;
15194;SDS011;7698;42.478;23.756;2022-07-11T03:21:37;1.88;;;1.67;;
15194;SDS011;7698;42.478;23.756;2022-07-11T03:24:05;1.65;;;1.55;;
15194;SDS011;7698;42.478;23.756;2022-07-11T03:26:32;3.17;;;1.33;;
15194;SDS011;7698;42.478;23.756;2022-07-11T03:28:59;1.70;;;1.60;;
15194;SDS011;7698;42.478;23.756;2022-07-11T03:31:26;1.60;;;1.50;;
15194;SDS011;7698;42.478;23.756;2022-07-11T03:33:52;2.28;;;1.50;;
15194;SDS011;7698;42.478;23.756;2022-07-11T03:36:19;1.80;;;1.70;;
15194;SDS011;7698;42.478;23.756;2022-07-11T03:38:45;1.80;;;1.70;;
15194;SDS011;7698;42.478;23.756;2022-07-11T03:41:13;1.80;;;1.70;;
15194;SDS011;7698;42.478;23.756;2022-07-11T03:43:40;1.70;;;1.60;;
15194;SDS011;7698;42.478;23.756;2022-07-11T03:46:06;1.67;;;1.40;;
15194;SDS011;7698;42.478;23.756;2022-07-11T03:48:33;1.60;;;1.50;;
15194;SDS011;7698;42.478;23.756;2022-07-11T03:51:00;1.83;;;1.40;;
15194;SDS011;7698;42.478;23.756;2022-07-11T03:53:27;1.60;;;1.50;;
15194;SDS011;7698;42.478;23.756;2022-07-11T03:55:53;1.50;;;1.40;;
15194;SDS011;7698;42.478;23.756;2022-07-11T03:58:21;1.98;;;1.45;;
15194;SDS011;7698;42.478;23.756;2022-07-11T04:00:48;1.40;;;1.30;;
15194;SDS011;7698;42.478;23.756;2022-07-11T04:03:14;3.63;;;2.03;;
15194;SDS011;7698;42.478;23.756;2022-07-11T04:05:41;1.50;;;1.40;;
15194;SDS011;7698;42.478;23.756;2022-07-11T04:08:08;1.50;;;1.40;;
15194;SDS011;7698;42.478;23.756;2022-07-11T04:10:34;1.30;;;1.23;;
15194;SDS011;7698;42.478;23.756;2022-07-11T04:13:01;1.65;;;1.55;;
15194;SDS011;7698;42.478;23.756;2022-07-11T04:15:29;1.42;;;1.33;;
15194;SDS011;7698;42.478;23.756;2022-07-11T04:17:56;1.85;;;1.30;;
15194;SDS011;7698;42.478;23.756;2022-07-11T04:20:22;1.20;;;1.10;;
15194;SDS011;7698;42.478;23.756;2022-07-11T04:22:49;2.95;;;1.23;;
15194;SDS011;7698;42.478;23.756;2022-07-11T04:25:15;1.50;;;1.20;;
15194;SDS011;7698;42.478;23.756;2022-07-11T04:27:42;2.50;;;1.10;;
15194;SDS011;7698;42.478;23.756;2022-07-11T04:30:09;2.47;;;1.10;;
15194;SDS011;7698;42.478;23.756;2022-07-11T04:32:37;1.08;;;1.00;;
15194;SDS011;7698;42.478;23.756;2022-07-11T04:35:04;1.08;;;0.98;;
15194;SDS011;7698;42.478;23.756;2022-07-11T04:37:31;1.10;;;1.00;;
15194;SDS011;7698;42.478;23.756;2022-07-11T04:39:57;0.82;;;0.82;;
15194;SDS011;7698;42.478;23.756;2022-07-11T04:42:24;1.52;;;1.10;;
15194;SDS011;7698;42.478;23.756;2022-07-11T04:44:50;3.08;;;1.20;;
15194;SDS011;7698;42.478;23.756;2022-07-11T04:47:17;2.13;;;1.08;;
15194;SDS011;7698;42.478;23.756;2022-07-11T04:49:45;1.23;;;1.08;;
15194;SDS011;7698;42.478;23.756;2022-07-11T04:52:12;2.15;;;0.93;;
15194;SDS011;7698;42.478;23.756;2022-07-11T04:54:39;0.80;;;0.80;;
15194;SDS011;7698;42.478;23.756;2022-07-11T04:57:06;1.05;;;1.00;;
15194;SDS011;7698;42.478;23.756;2022-07-11T04:59:32;1.42;;;1.10;;
15194;SDS011;7698;42.478;23.756;2022-07-11T05:01:59;1.20;;;1.10;;
15194;SDS011;7698;42.478;23.756;2022-07-11T05:04:26;2.15;;;1.20;;
15194;SDS011;7698;42.478;23.756;2022-07-11T05:06:54;2.05;;;1.33;;
15194;SDS011;7698;42.478;23.756;2022-07-11T05:09:20;0.90;;;0.90;;
15194;SDS011;7698;42.478;23.756;2022-07-11T05:11:47;1.02;;;0.98;;
15194;SDS011;7698;42.478;23.756;2022-07-11T05:14:14;1.92;;;1.08;;
15194;SDS011;7698;42.478;23.756;2022-07-11T05:16:40;1.42;;;1.30;;
15194;SDS011;7698;42.478;23.756;2022-07-11T05:19:07;2.53;;;1.20;;
15194;SDS011;7698;42.478;23.756;2022-07-11T05:21:34;3.53;;;1.38;;
15194;SDS011;7698;42.478;23.756;2022-07-11T05:24:02;1.40;;;1.30;;
15194;SDS011;7698;42.478;23.756;2022-07-11T05:26:28;2.83;;;1.50;;
15194;SDS011;7698;42.478;23.756;2022-07-11T05:28:55;1.52;;;1.25;;
15194;SDS011;7698;42.478;23.756;2022-07-11T05:31:21;2.10;;;1.48;;
15194;SDS011;7698;42.478;23.756;2022-07-11T05:33:48;2.97;;;1.33;;
15194;SDS011;7698;42.478;23.756;2022-07-11T05:36:15;1.52;;;1.40;;
15194;SDS011;7698;42.478;23.756;2022-07-11T05:38:41;3.58;;;1.58;;
15194;SDS011;7698;42.478;23.756;2022-07-11T05:41:09;1.52;;;1.42;;
15194;SDS011;7698;42.478;23.756;2022-07-11T05:43:36;1.13;;;1.02;;
15194;SDS011;7698;42.478;23.756;2022-07-11T05:46:06;1.33;;;1.23;;
15194;SDS011;7698;42.478;23.756;2022-07-11T05:48:32;3.58;;;1.60;;
15194;SDS011;7698;42.478;23.756;2022-07-11T05:50:59;2.20;;;1.40;;
15194;SDS011;7698;42.478;23.756;2022-07-11T05:53:26;1.52;;;1.42;;
15194;SDS011;7698;42.478;23.756;2022-07-11T05:55:52;1.38;;;1.27;;
15194;SDS011;7698;42.478;23.756;2022-07-11T05:58:20;1.50;;;1.40;;
15194;SDS011;7698;42.478;23.756;2022-07-11T06:00:47;1.60;;;1.50;;
15194;SDS011;7698;42.478;23.756;2022-07-11T06:03:13;1.70;;;1.60;;
15194;SDS011;7698;42.478;23.756;2022-07-11T06:05:40;1.35;;;1.25;;
15194;SDS011;7698;42.478;23.756;2022-07-11T06:08:07;1.20;;;1.10;;
15194;SDS011;7698;42.478;23.756;2022-07-11T06:10:51;2.13;;;1.23;;
15194;SDS011;7698;42.478;23.756;2022-07-11T06:13:17;1.30;;;1.20;;
15194;SDS011;7698;42.478;23.756;2022-07-11T06:15:45;1.00;;;1.00;;
15194;SDS011;7698;42.478;23.756;2022-07-11T06:18:13;1.92;;;1.30;;
15194;SDS011;7698;42.478;23.756;2022-07-11T06:20:39;1.75;;;1.30;;
15194;SDS011;7698;42.478;23.756;2022-07-11T06:23:06;1.27;;;1.17;;
15194;SDS011;7698;42.478;23.756;2022-07-11T06:25:33;2.20;;;0.93;;
15194;SDS011;7698;42.478;23.756;2022-07-11T06:27:59;1.95;;;1.02;;
15194;SDS011;7698;42.478;23.756;2022-07-11T06:30:27;2.63;;;0.80;;
15194;SDS011;7698;42.478;23.756;2022-07-11T06:32:55;1.67;;;1.00;;
15194;SDS011;7698;42.478;23.756;2022-07-11T06:35:21;2.78;;;1.00;;
15194;SDS011;7698;42.478;23.756;2022-07-11T06:37:48;1.67;;;1.20;;
15194;SDS011;7698;42.478;23.756;2022-07-11T06:40:15;1.08;;;0.82;;
15194;SDS011;7698;42.478;23.756;2022-07-11T06:42:42;2.15;;;0.80;;
15194;SDS011;7698;42.478;23.756;2022-07-11T06:45:09;1.25;;;0.90;;
15194;SDS011;7698;42.478;23.756;2022-07-11T06:47:36;2.28;;;1.40;;
15194;SDS011;7698;42.478;23.756;2022-07-11T06:50:05;2.08;;;1.23;;
15194;SDS011;7698;42.478;23.756;2022-07-11T06:52:31;4.68;;;1.13;;
15194;SDS011;7698;42.478;23.756;2022-07-11T06:54:58;4.53;;;1.00;;
15194;SDS011;7698;42.478;23.756;2022-07-11T06:57:25;2.20;;;0.80;;
15194;SDS011;7698;42.478;23.756;2022-07-11T06:59:51;2.60;;;1.00;;
15194;SDS011;7698;42.478;23.756;2022-07-11T07:02:18;1.27;;;0.90;;
15194;SDS011;7698;42.478;23.756;2022-07-11T07:04:45;0.70;;;0.70;;
15194;SDS011;7698;42.478;23.756;2022-07-11T07:07:13;1.17;;;0.85;;
15194;SDS011;7698;42.478;23.756;2022-07-11T07:09:39;2.40;;;0.82;;
15194;SDS011;7698;42.478;23.756;2022-07-11T07:12:06;1.90;;;1.00;;
15194;SDS011;7698;42.478;23.756;2022-07-11T07:14:33;1.33;;;0.90;;
15194;SDS011;7698;42.478;23.756;2022-07-11T07:16:59;1.25;;;0.98;;
15194;SDS011;7698;42.478;23.756;2022-07-11T07:19:26;2.67;;;0.73;;
15194;SDS011;7698;42.478;23.756;2022-07-11T07:21:53;5.38;;;0.85;;
15194;SDS011;7698;42.478;23.756;2022-07-11T07:24:21;1.85;;;0.93;;
15194;SDS011;7698;42.478;23.756;2022-07-11T07:26:48;1.70;;;0.98;;
15194;SDS011;7698;42.478;23.756;2022-07-11T07:29:14;2.40;;;0.60;;
15194;SDS011;7698;42.478;23.756;2022-07-11T07:31:41;1.25;;;0.75;;
15194;SDS011;7698;42.478;23.756;2022-07-11T07:34:08;2.38;;;0.85;;
15194;SDS011;7698;42.478;23.756;2022-07-11T07:36:35;1.23;;;0.70;;
15194;SDS011;7698;42.478;23.756;2022-07-11T07:39:02;0.90;;;0.80;;
15194;SDS011;7698;42.478;23.756;2022-07-11T07:41:30;1.33;;;0.80;;
15194;SDS011;7698;42.478;23.756;2022-07-11T07:43:57;1.45;;;0.80;;
15194;SDS011;7698;42.478;23.756;2022-07-11T07:46:24;1.92;;;0.70;;
15194;SDS011;7698;42.478;23.756;2022-07-11T07:48:50;0.63;;;0.60;;
15194;SDS011;7698;42.478;23.756;2022-07-11T07:51:17;0.82;;;0.70;;
15194;SDS011;7698;42.478;23.756;2022-07-11T07:53:44;2.08;;;0.73;;
15194;SDS011;7698;42.478;23.756;2022-07-11T07:56:11;2.42;;;0.98;;
15194;SDS011;7698;42.478;23.756;2022-07-11T07:58:40;2.13;;;0.70;;
15194;SDS011;7698;42.478;23.756;2022-07-11T08:01:06;1.60;;;0.68;;
15194;SDS011;7698;42.478;23.756;2022-07-11T08:04:02;0.70;;;0.70;;
15194;SDS011;7698;42.478;23.756;2022-07-11T08:06:29;2.05;;;0.88;;
15194;SDS011;7698;42.478;23.756;2022-07-11T08:08:56;1.67;;;0.80;;
15194;SDS011;7698;42.478;23.756;2022-07-11T08:11:23;2.85;;;0.75;;
15194;SDS011;7698;42.478;23.756;2022-07-11T08:13:51;1.90;;;0.88;;
15194;SDS011;7698;42.478;23.756;2022-07-11T08:16:18;2.08;;;0.70;;
15194;SDS011;7698;42.478;23.756;2022-07-11T08:18:45;3.00;;;0.77;;
15194;SDS011;7698;42.478;23.756;2022-07-11T08:21:13;1.25;;;0.80;;
15194;SDS011;7698;42.478;23.756;2022-07-11T08:23:39;2.90;;;0.73;;
15194;SDS011;7698;42.478;23.756;2022-07-11T08:26:06;1.70;;;0.77;;
15194;SDS011;7698;42.478;23.756;2022-07-11T08:28:33;2.03;;;0.52;;
15194;SDS011;7698;42.478;23.756;2022-07-11T08:31:01;0.60;;;0.60;;
15194;SDS011;7698;42.478;23.756;2022-07-11T08:33:28;3.50;;;1.20;;
15194;SDS011;7698;42.478;23.756;2022-07-11T08:35:55;3.08;;;0.60;;
15194;SDS011;7698;42.478;23.756;2022-07-11T08:38:22;1.13;;;0.68;;
15194;SDS011;7698;42.478;23.756;2022-07-11T08:40:49;3.13;;;0.45;;
15194;SDS011;7698;42.478;23.756;2022-07-11T08:43:16;1.13;;;0.50;;
15194;SDS011;7698;42.478;23.756;2022-07-11T08:45:43;1.17;;;0.57;;
15194;SDS011;7698;42.478;23.756;2022-07-11T08:48:11;2.33;;;1.10;;
15194;SDS011;7698;42.478;23.756;2022-07-11T08:50:39;2.53;;;0.80;;
15194;SDS011;7698;42.478;23.756;2022-07-11T08:53:05;2.28;;;0.73;;
15194;SDS011;7698;42.478;23.756;2022-07-11T08:55:32;2.47;;;0.73;;
15194;SDS011;7698;42.478;23.756;2022-07-11T08:57:59;2.33;;;0.80;;
15194;SDS011;7698;42.478;23.756;2022-07-11T09:00:26;1.33;;;0.75;;
15194;SDS011;7698;42.478;23.756;2022-07-11T09:02:53;2.42;;;0.80;;
15194;SDS011;7698;42.478;23.756;2022-07-11T09:05:21;1.27;;;0.65;;
15194;SDS011;7698;42.478;23.756;2022-07-11T09:07:49;0.80;;;0.80;;
15194;SDS011;7698;42.478;23.756;2022-07-11T09:10:16;1.55;;;0.52;;
15194;SDS011;7698;42.478;23.756;2022-07-11T09:12:58;4.22;;;0.60;;
15194;SDS011;7698;42.478;23.756;2022-07-11T09:15:32;2.33;;;0.95;;
15194;SDS011;7698;42.478;23.756;2022-07-11T09:17:59;5.50;;;1.15;;
15194;SDS011;7698;42.478;23.756;2022-07-11T09:20:27;0.95;;;0.63;;
15194;SDS011;7698;42.478;23.756;2022-07-11T09:23:21;2.22;;;0.60;;
15194;SDS011;7698;42.478;23.756;2022-07-11T09:26:05;1.73;;;0.50;;
15194;SDS011;7698;42.478;23.756;2022-07-11T09:28:32;1.88;;;0.65;;
15194;SDS011;7698;42.478;23.756;2022-07-11T09:30:59;2.80;;;0.57;;
15194;SDS011;7698;42.478;23.756;2022-07-11T09:33:25;2.08;;;0.60;;
15194;SDS011;7698;42.478;23.756;2022-07-11T09:35:53;1.35;;;0.70;;
15194;SDS011;7698;42.478;23.756;2022-07-11T09:38:20;2.10;;;1.30;;
15194;SDS011;7698;42.478;23.756;2022-07-11T09:40:48;2.28;;;0.75;;
15194;SDS011;7698;42.478;23.756;2022-07-11T09:43:14;2.45;;;0.60;;
15194;SDS011;7698;42.478;23.756;2022-07-11T09:45:49;4.35;;;0.68;;
15194;SDS011;7698;42.478;23.756;2022-07-11T09:48:16;1.90;;;0.70;;
15194;SDS011;7698;42.478;23.756;2022-07-11T09:50:55;1.17;;;0.70;;
15194;SDS011;7698;42.478;23.756;2022-07-11T09:53:25;0.85;;;0.60;;
15194;SDS011;7698;42.478;23.756;2022-07-11T09:55:52;3.53;;;1.00;;
15194;SDS011;7698;42.478;23.756;2022-07-11T09:58:19;1.92;;;0.50;;
15194;SDS011;7698;42.478;23.756;2022-07-11T10:00:47;0.80;;;0.50;;
15194;SDS011;7698;42.478;23.756;2022-07-11T10:03:14;1.75;;;0.70;;
15194;SDS011;7698;42.478;23.756;2022-07-11T10:05:40;2.28;;;0.70;;
15194;SDS011;7698;42.478;23.756;2022-07-11T10:08:08;0.55;;;0.47;;
15194;SDS011;7698;42.478;23.756;2022-07-11T10:10:37;0.50;;;0.40;;
15194;SDS011;7698;42.478;23.756;2022-07-11T10:13:04;2.92;;;0.50;;
15194;SDS011;7698;42.478;23.756;2022-07-11T10:15:31;1.27;;;0.60;;
15194;SDS011;7698;42.478;23.756;2022-07-11T10:18:00;3.28;;;0.70;;
15194;SDS011;7698;42.478;23.756;2022-07-11T10:20:32;3.33;;;0.70;;
15194;SDS011;7698;42.478;23.756;2022-07-11T10:23:03;3.13;;;1.10;;
15194;SDS011;7698;42.478;23.756;2022-07-11T10:25:35;2.60;;;1.00;;
15194;SDS011;7698;42.478;23.756;2022-07-11T10:28:08;3.95;;;0.75;;
15194;SDS011;7698;42.478;23.756;2022-07-11T10:30:44;2.38;;;0.60;;
15194;SDS011;7698;42.478;23.756;2022-07-11T10:33:11;8.50;;;1.25;;
15194;SDS011;7698;42.478;23.756;2022-07-11T10:35:39;1.02;;;0.40;;
15194;SDS011;7698;42.478;23.756;2022-07-11T10:38:06;2.45;;;0.60;;
15194;SDS011;7698;42.478;23.756;2022-07-11T10:40:44;0.60;;;0.60;;
15194;SDS011;7698;42.478;23.756;2022-07-11T10:43:11;1.63;;;0.60;;
15194;SDS011;7698;42.478;23.756;2022-07-11T10:48:20;2.50;;;0.93;;
15194;SDS011;7698;42.478;23.756;2022-07-11T10:50:47;5.75;;;0.90;;
15194;SDS011;7698;42.478;23.756;2022-07-11T10:53:20;0.90;;;0.52;;
15194;SDS011;7698;42.478;23.756;2022-07-11T10:55:57;5.95;;;0.60;;
15194;SDS011;7698;42.478;23.756;2022-07-11T10:58:29;4.13;;;0.70;;
15194;SDS011;7698;42.478;23.756;2022-07-11T11:01:07;0.88;;;0.50;;
15194;SDS011;7698;42.478;23.756;2022-07-11T11:03:33;1.98;;;0.70;;
15194;SDS011;7698;42.478;23.756;2022-07-11T11:06:00;1.60;;;0.77;;
15194;SDS011;7698;42.478;23.756;2022-07-11T11:08:40;1.23;;;0.70;;
15194;SDS011;7698;42.478;23.756;2022-07-11T11:11:33;1.98;;;0.63;;
15194;SDS011;7698;42.478;23.756;2022-07-11T11:19:54;0.65;;;0.55;;
15194;SDS011;7698;42.478;23.756;2022-07-11T11:22:22;1.50;;;0.47;;
15194;SDS011;7698;42.478;23.756;2022-07-11T11:24:50;2.60;;;1.08;;
15194;SDS011;7698;42.478;23.756;2022-07-11T11:27:19;2.92;;;0.52;;
15194;SDS011;7698;42.478;23.756;2022-07-11T11:29:47;1.58;;;0.43;;
15194;SDS011;7698;42.478;23.756;2022-07-11T11:32:14;1.88;;;0.90;;
15194;SDS011;7698;42.478;23.756;2022-07-11T11:34:40;0.70;;;0.50;;
15194;SDS011;7698;42.478;23.756;2022-07-11T11:37:07;1.70;;;0.85;;
15194;SDS011;7698;42.478;23.756;2022-07-11T11:39:34;0.50;;;0.40;;
15194;SDS011;7698;42.478;23.756;2022-07-11T11:42:04;6.32;;;1.77;;
15194;SDS011;7698;42.478;23.756;2022-07-11T11:44:33;1.33;;;0.38;;
15194;SDS011;7698;42.478;23.756;2022-07-11T11:47:00;1.05;;;0.60;;
15194;SDS011;7698;42.478;23.756;2022-07-11T11:49:27;1.45;;;0.52;;
15194;SDS011;7698;42.478;23.756;2022-07-11T11:51:54;3.60;;;0.85;;
15194;SDS011;7698;42.478;23.756;2022-07-11T11:54:22;1.95;;;0.70;;
15194;SDS011;7698;42.478;23.756;2022-07-11T11:56:50;0.60;;;0.60;;
15194;SDS011;7698;42.478;23.756;2022-07-11T11:59:17;1.38;;;0.90;;
15194;SDS011;7698;42.478;23.756;2022-07-11T12:01:47;1.42;;;0.70;;
15194;SDS011;7698;42.478;23.756;2022-07-11T12:04:14;1.92;;;0.70;;
15194;SDS011;7698;42.478;23.756;2022-07-11T12:06:42;0.55;;;0.55;;
15194;SDS011;7698;42.478;23.756;2022-07-11T12:09:09;0.90;;;0.80;;
15194;SDS011;7698;42.478;23.756;2022-07-11T12:11:37;2.25;;;0.60;;
15194;SDS011;7698;42.478;23.756;2022-07-11T12:14:04;1.50;;;0.77;;
15194;SDS011;7698;42.478;23.756;2022-07-11T12:16:31;5.05;;;0.88;;
15194;SDS011;7698;42.478;23.756;2022-07-11T12:19:10;1.70;;;0.95;;
15194;SDS011;7698;42.478;23.756;2022-07-11T12:21:37;1.77;;;0.95;;
15194;SDS011;7698;42.478;23.756;2022-07-11T12:24:05;0.93;;;0.60;;
15194;SDS011;7698;42.478;23.756;2022-07-11T12:26:33;3.33;;;0.60;;
15194;SDS011;7698;42.478;23.756;2022-07-11T12:29:04;2.13;;;0.77;;
15194;SDS011;7698;42.478;23.756;2022-07-11T12:31:45;2.85;;;0.65;;
15194;SDS011;7698;42.478;23.756;2022-07-11T12:34:14;1.70;;;0.70;;
15194;SDS011;7698;42.478;23.756;2022-07-11T12:36:41;1.00;;;0.40;;
15194;SDS011;7698;42.478;23.756;2022-07-11T12:39:08;0.75;;;0.68;;
15194;SDS011;7698;42.478;23.756;2022-07-11T12:41:35;1.52;;;0.70;;
15194;SDS011;7698;42.478;23.756;2022-07-11T12:44:02;2.15;;;0.70;;
15194;SDS011;7698;42.478;23.756;2022-07-11T12:46:46;0.93;;;0.60;;
15194;SDS011;7698;42.478;23.756;2022-07-11T12:49:17;1.27;;;0.70;;
15194;SDS011;7698;42.478;23.756;2022-07-11T12:51:44;1.10;;;0.55;;
15194;SDS011;7698;42.478;23.756;2022-07-11T12:54:12;1.00;;;0.60;;
15194;SDS011;7698;42.478;23.756;2022-07-11T12:56:39;1.10;;;0.60;;
15194;SDS011;7698;42.478;23.756;2022-07-11T12:59:06;2.63;;;0.50;;
15194;SDS011;7698;42.478;23.756;2022-07-11T13:01:33;1.85;;;0.70;;
15194;SDS011;7698;42.478;23.756;2022-07-11T13:03:59;1.25;;;0.90;;
15194;SDS011;7698;42.478;23.756;2022-07-11T13:06:28;2.67;;;0.85;;
15194;SDS011;7698;42.478;23.756;2022-07-11T13:09:13;1.85;;;0.90;;
15194;SDS011;7698;42.478;23.756;2022-07-11T13:11:40;1.17;;;0.68;;
15194;SDS011;7698;42.478;23.756;2022-07-11T13:14:06;1.05;;;0.52;;
15194;SDS011;7698;42.478;23.756;2022-07-11T13:16:54;0.45;;;0.45;;
15194;SDS011;7698;42.478;23.756;2022-07-11T13:19:20;1.27;;;0.60;;
15194;SDS011;7698;42.478;23.756;2022-07-11T13:21:49;1.52;;;0.90;;
15194;SDS011;7698;42.478;23.756;2022-07-11T13:24:15;1.00;;;0.70;;
15194;SDS011;7698;42.478;23.756;2022-07-11T13:26:42;0.93;;;0.68;;
15194;SDS011;7698;42.478;23.756;2022-07-11T13:29:09;1.55;;;0.65;;
15194;SDS011;7698;42.478;23.756;2022-07-11T13:31:35;2.97;;;0.70;;
15194;SDS011;7698;42.478;23.756;2022-07-11T13:34:02;0.75;;;0.70;;
15194;SDS011;7698;42.478;23.756;2022-07-11T13:36:29;2.05;;;0.60;;
15194;SDS011;7698;42.478;23.756;2022-07-11T13:38:57;1.45;;;0.60;;
15194;SDS011;7698;42.478;23.756;2022-07-11T13:41:24;0.88;;;0.50;;
15194;SDS011;7698;42.478;23.756;2022-07-11T13:43:51;1.23;;;0.70;;
15194;SDS011;7698;42.478;23.756;2022-07-11T13:46:17;1.90;;;0.70;;
15194;SDS011;7698;42.478;23.756;2022-07-11T13:48:44;0.70;;;0.52;;
15194;SDS011;7698;42.478;23.756;2022-07-11T13:51:11;5.28;;;0.90;;
15194;SDS011;7698;42.478;23.756;2022-07-11T13:53:38;2.22;;;0.85;;
15194;SDS011;7698;42.478;23.756;2022-07-11T13:56:06;2.38;;;0.52;;
15194;SDS011;7698;42.478;23.756;2022-07-11T13:58:33;2.03;;;0.65;;
15194;SDS011;7698;42.478;23.756;2022-07-11T14:01:00;1.77;;;0.80;;
15194;SDS011;7698;42.478;23.756;2022-07-11T14:03:27;1.20;;;0.80;;
15194;SDS011;7698;42.478;23.756;2022-07-11T14:05:53;1.50;;;0.80;;
15194;SDS011;7698;42.478;23.756;2022-07-11T14:08:21;1.20;;;0.88;;
15194;SDS011;7698;42.478;23.756;2022-07-11T14:10:48;0.95;;;0.68;;
15194;SDS011;7698;42.478;23.756;2022-07-11T14:13:16;0.98;;;0.80;;
15194;SDS011;7698;42.478;23.756;2022-07-11T14:15:43;0.68;;;0.63;;
15194;SDS011;7698;42.478;23.756;2022-07-11T14:18:10;2.25;;;0.80;;
15194;SDS011;7698;42.478;23.756;2022-07-11T14:20:37;0.90;;;0.60;;
15194;SDS011;7698;42.478;23.756;2022-07-11T14:23:04;2.03;;;0.80;;
15194;SDS011;7698;42.478;23.756;2022-07-11T14:25:30;2.60;;;0.93;;
15194;SDS011;7698;42.478;23.756;2022-07-11T14:27:57;1.98;;;0.90;;
15194;SDS011;7698;42.478;23.756;2022-07-11T14:30:25;1.02;;;0.77;;
15194;SDS011;7698;42.478;23.756;2022-07-11T14:32:52;2.40;;;0.80;;
15194;SDS011;7698;42.478;23.756;2022-07-11T14:35:18;2.28;;;0.80;;
15194;SDS011;7698;42.478;23.756;2022-07-11T14:37:45;2.45;;;0.90;;
15194;SDS011;7698;42.478;23.756;2022-07-11T14:40:12;0.93;;;0.82;;
15194;SDS011;7698;42.478;23.756;2022-07-11T14:42:38;1.35;;;0.63;;
15194;SDS011;7698;42.478;23.756;2022-07-11T14:45:05;1.52;;;0.60;;
15194;SDS011;7698;42.478;23.756;2022-07-11T14:47:34;3.00;;;0.90;;
15194;SDS011;7698;42.478;23.756;2022-07-11T14:50:01;0.95;;;0.75;;
15194;SDS011;7698;42.478;23.756;2022-07-11T14:52:28;2.75;;;0.98;;
15194;SDS011;7698;42.478;23.756;2022-07-11T14:54:54;1.40;;;0.70;;
15194;SDS011;7698;42.478;23.756;2022-07-11T14:57:21;2.55;;;0.65;;
15194;SDS011;7698;42.478;23.756;2022-07-11T14:59:48;1.30;;;0.70;;